createdAt,value
2022-09-01T00:00:07.326Z,15.40
2022-09-01T00:02:35.117Z,15.40
2022-09-01T00:05:06.154Z,15.30
2022-09-01T00:07:35.386Z,15.30
2022-09-01T00:10:06.155Z,15.30
2022-09-01T00:12:33.909Z,15.20
2022-09-01T00:15:01.073Z,15.20
2022-09-01T00:17:28.288Z,15.10
2022-09-01T00:19:55.808Z,15.10
2022-09-01T00:22:22.960Z,15.10
2022-09-01T00:24:50.044Z,15.10
2022-09-01T00:27:17.819Z,15.00
2022-09-01T00:29:45.209Z,15.00
2022-09-01T00:32:13.245Z,14.90
2022-09-01T00:34:41.871Z,14.90
2022-09-01T00:37:08.988Z,14.90
2022-09-01T00:39:36.229Z,14.90
2022-09-01T00:42:05.062Z,14.90
2022-09-01T00:44:32.461Z,14.80
2022-09-01T00:47:00.541Z,14.80
2022-09-01T00:49:42.954Z,14.80
2022-09-01T00:52:35.709Z,14.80
2022-09-01T00:55:13.094Z,14.70
2022-09-01T00:57:41.078Z,14.70
2022-09-01T01:00:14.208Z,14.70
2022-09-01T01:02:45.127Z,14.70
2022-09-01T01:05:15.121Z,14.70
2022-09-01T01:07:48.024Z,14.70
2022-09-01T01:10:20.004Z,14.70
2022-09-01T01:12:47.188Z,14.70
2022-09-01T01:15:15.542Z,14.60
2022-09-01T01:17:43.073Z,14.60
2022-09-01T01:20:34.233Z,14.70
2022-09-01T01:23:37.150Z,14.70
2022-09-01T01:26:07.359Z,14.60
2022-09-01T01:28:39.820Z,14.60
2022-09-01T01:31:14.716Z,14.60
2022-09-01T01:33:49.356Z,14.60
2022-09-01T01:36:32.497Z,14.60
2022-09-01T01:39:12.430Z,14.60
2022-09-01T01:41:45.280Z,14.50
2022-09-01T01:44:17.547Z,14.50
2022-09-01T01:46:53.191Z,14.50
2022-09-01T01:49:24.861Z,14.50
2022-09-01T01:51:56.182Z,14.50
2022-09-01T01:54:29.690Z,14.40
2022-09-01T01:56:58.124Z,14.40
2022-09-01T01:59:26.724Z,14.40
2022-09-01T02:01:54.083Z,14.40
2022-09-01T02:04:22.579Z,14.40
2022-09-01T02:06:52.150Z,14.30
2022-09-01T02:09:23.411Z,14.30
2022-09-01T02:11:57.249Z,14.30
2022-09-01T02:14:24.798Z,14.30
2022-09-01T02:16:56.143Z,14.20
2022-09-01T02:19:23.726Z,14.20
2022-09-01T02:21:56.121Z,14.10
2022-09-01T02:24:26.448Z,14.10
2022-09-01T02:26:54.861Z,14.10
2022-09-01T02:29:26.576Z,14.00
2022-09-01T02:31:55.654Z,14.00
2022-09-01T02:34:26.036Z,14.00
2022-09-01T02:36:56.827Z,13.90
2022-09-01T02:39:29.798Z,13.90
2022-09-01T02:41:57.253Z,13.90
2022-09-01T02:44:29.192Z,13.90
2022-09-01T02:46:58.853Z,13.80
2022-09-01T02:49:28.664Z,13.80
2022-09-01T02:52:01.905Z,13.80
2022-09-01T02:54:32.946Z,13.80
2022-09-01T02:57:01.040Z,13.70
2022-09-01T02:59:30.516Z,13.70
2022-09-01T03:02:00.918Z,13.70
2022-09-01T03:04:34.984Z,13.70
2022-09-01T03:07:05.871Z,13.60
2022-09-01T03:09:34.248Z,13.60
2022-09-01T03:12:02.019Z,13.60
2022-09-01T03:14:30.142Z,13.60
2022-09-01T03:16:57.721Z,13.50
2022-09-01T03:19:25.007Z,13.50
2022-09-01T03:21:52.106Z,13.50
2022-09-01T03:24:23.582Z,13.50
2022-09-01T03:26:52.424Z,13.40
2022-09-01T03:29:21.030Z,13.40
2022-09-01T03:31:48.744Z,13.40
2022-09-01T03:34:16.637Z,13.30
2022-09-01T03:36:52.028Z,13.20
2022-09-01T03:39:26.292Z,13.20
2022-09-01T03:41:53.867Z,13.20
2022-09-01T03:44:21.405Z,13.10
2022-09-01T03:46:48.530Z,13.10
2022-09-01T03:49:25.172Z,13.10
2022-09-01T03:51:57.464Z,13.10
2022-09-01T03:54:30.578Z,13.10
2022-09-01T03:57:00.005Z,13.00
2022-09-01T03:59:30.014Z,13.00
2022-09-01T04:01:58.475Z,12.90
2022-09-01T04:04:26.582Z,12.90
2022-09-01T04:06:53.717Z,12.90
2022-09-01T04:09:21.009Z,12.90
2022-09-01T04:11:51.678Z,12.80
2022-09-01T04:14:20.437Z,12.80
2022-09-01T04:17:07.727Z,12.80
2022-09-01T04:19:39.618Z,12.80
2022-09-01T04:22:14.548Z,12.70
2022-09-01T04:24:46.301Z,12.70
2022-09-01T04:27:18.211Z,12.60
2022-09-01T04:29:48.579Z,12.60
2022-09-01T04:32:16.134Z,12.60
2022-09-01T04:34:49.652Z,12.50
2022-09-01T04:37:21.839Z,12.50
2022-09-01T04:39:57.683Z,12.50
2022-09-01T04:42:29.996Z,12.50
2022-09-01T04:45:01.954Z,12.40
2022-09-01T04:47:37.666Z,12.40
2022-09-01T04:50:17.581Z,12.40
2022-09-01T04:53:07.204Z,12.30
2022-09-01T04:55:44.495Z,12.30
2022-09-01T04:58:17.828Z,12.30
2022-09-01T05:00:52.135Z,12.30
2022-09-01T05:03:23.553Z,12.30
2022-09-01T05:06:01.231Z,12.20
2022-09-01T05:08:29.060Z,12.20
2022-09-01T05:11:07.801Z,12.20
2022-09-01T05:13:49.296Z,12.20
2022-09-01T05:16:25.195Z,12.20
2022-09-01T05:18:57.166Z,12.20
2022-09-01T05:21:29.680Z,12.20
2022-09-01T05:24:01.487Z,12.20
2022-09-01T05:26:34.132Z,12.20
2022-09-01T05:29:10.715Z,12.20
2022-09-01T05:31:39.040Z,12.20
2022-09-01T05:34:09.685Z,12.20
2022-09-01T05:36:43.398Z,12.10
2022-09-01T05:39:12.311Z,12.20
2022-09-01T05:41:41.161Z,12.10
2022-09-01T05:44:09.740Z,12.10
2022-09-01T05:46:39.932Z,12.10
2022-09-01T05:49:13.627Z,12.10
2022-09-01T05:51:45.919Z,12.20
2022-09-01T05:54:23.350Z,12.30
2022-09-01T05:56:50.878Z,12.40
2022-09-01T05:59:25.685Z,12.50
2022-09-01T06:02:00.941Z,12.60
2022-09-01T06:04:30.055Z,12.70
2022-09-01T06:07:06.845Z,12.70
2022-09-01T06:09:43.383Z,12.70
2022-09-01T06:12:18.061Z,12.80
2022-09-01T06:14:48.765Z,12.90
2022-09-01T06:17:25.165Z,13.00
2022-09-01T06:19:58.153Z,13.00
2022-09-01T06:22:28.588Z,13.10
2022-09-01T06:25:02.405Z,13.20
2022-09-01T06:27:42.695Z,13.20
2022-09-01T06:30:20.189Z,13.30
2022-09-01T06:33:01.968Z,13.40
2022-09-01T06:35:29.989Z,13.40
2022-09-01T06:37:58.764Z,13.50
2022-09-01T06:40:41.542Z,13.50
2022-09-01T06:43:12.480Z,13.60
2022-09-01T06:45:54.394Z,13.70
2022-09-01T06:48:23.754Z,13.80
2022-09-01T06:53:44.320Z,13.80
2022-09-01T06:56:15.146Z,13.80
2022-09-01T06:58:47.525Z,13.90
2022-09-01T07:01:20.438Z,13.90
2022-09-01T07:03:52.708Z,13.90
2022-09-01T07:09:50.078Z,14.10
2022-09-01T07:18:28.729Z,14.20
2022-09-01T07:24:07.794Z,14.40
2022-09-01T07:26:36.020Z,14.40
2022-09-01T07:29:07.055Z,14.50
2022-09-01T07:34:46.322Z,14.60
2022-09-01T07:38:47.759Z,14.80
2022-09-01T07:43:28.385Z,14.90
2022-09-01T07:49:29.672Z,15.00
2022-09-01T07:51:51.180Z,15.10
2022-09-01T07:54:21.311Z,15.10
2022-09-01T07:56:50.505Z,15.10
2022-09-01T07:59:18.372Z,15.10
2022-09-01T08:01:53.817Z,15.20
2022-09-01T08:04:23.088Z,15.20
2022-09-01T08:06:51.133Z,15.30
2022-09-01T08:09:25.238Z,15.30
2022-09-01T08:12:03.319Z,15.30
2022-09-01T08:14:34.264Z,15.30
2022-09-01T08:17:16.848Z,15.40
2022-09-01T08:19:47.067Z,15.40
2022-09-01T08:22:25.624Z,15.50
2022-09-01T08:25:01.755Z,15.50
2022-09-01T08:27:29.225Z,15.50
2022-09-01T08:29:57.748Z,15.60
2022-09-01T08:32:24.968Z,15.70
2022-09-01T08:34:52.410Z,15.70
2022-09-01T08:37:21.584Z,15.80
2022-09-01T08:39:49.584Z,15.80
2022-09-01T08:43:09.132Z,15.90
2022-09-01T08:45:53.614Z,16.10
2022-09-01T08:52:14.047Z,16.30
2022-09-01T08:54:53.689Z,16.40
2022-09-01T08:57:36.810Z,16.50
2022-09-01T09:00:27.669Z,16.60
2022-09-01T09:03:59.701Z,16.70
2022-09-01T09:06:55.159Z,16.90
2022-09-01T09:09:41.473Z,17.00
2022-09-01T09:12:49.059Z,17.20
2022-09-01T09:16:09.057Z,17.30
2022-09-01T09:18:56.673Z,17.40
2022-09-01T09:21:42.974Z,17.60
2022-09-01T09:24:50.921Z,17.70
2022-09-01T09:27:28.297Z,17.80
2022-09-01T09:30:08.031Z,17.90
2022-09-01T09:35:54.995Z,18.10
2022-09-01T09:40:25.116Z,18.20
2022-09-01T09:41:27.247Z,18.20
2022-09-01T09:44:27.272Z,18.30
2022-09-01T09:46:54.444Z,18.40
2022-09-01T09:49:36.310Z,18.40
2022-09-01T09:52:10.782Z,18.50
2022-09-01T09:55:04.629Z,18.50
2022-09-01T09:57:39.922Z,18.60
2022-09-01T10:00:34.604Z,18.70
2022-09-01T10:03:13.168Z,18.70
2022-09-01T10:05:51.737Z,18.80
2022-09-01T10:08:28.437Z,18.90
2022-09-01T10:10:57.861Z,19.00
2022-09-01T10:13:32.644Z,19.00
2022-09-01T10:16:26.732Z,19.10
2022-09-01T10:19:00.810Z,19.20
2022-09-01T10:21:38.603Z,19.20
2022-09-01T10:24:44.422Z,19.30
2022-09-01T10:27:27.444Z,19.40
2022-09-01T10:30:20.908Z,19.50
2022-09-01T10:32:56.929Z,19.60
2022-09-01T10:35:31.058Z,19.70
2022-09-01T10:38:06.923Z,19.70
2022-09-01T10:40:43.889Z,19.80
2022-09-01T10:43:36.323Z,19.80
2022-09-01T10:46:48.303Z,19.90
2022-09-01T10:49:30.279Z,20.00
2022-09-01T10:52:28.279Z,20.00
2022-09-01T10:54:55.233Z,20.10
2022-09-01T10:57:42.291Z,20.10
2022-09-01T11:00:36.452Z,20.20
2022-09-01T11:06:17.946Z,20.30
2022-09-01T11:09:00.978Z,20.30
2022-09-01T11:11:49.411Z,20.30
2022-09-01T11:14:29.381Z,20.40
2022-09-01T11:17:17.406Z,20.40
2022-09-01T11:20:10.822Z,20.50
2022-09-01T11:22:59.165Z,20.50
2022-09-01T11:28:42.914Z,20.60
2022-09-01T11:31:29.986Z,20.70
2022-09-01T11:34:04.464Z,20.80
2022-09-01T11:36:48.527Z,20.90
2022-09-01T11:39:19.277Z,21.00
2022-09-01T11:42:06.123Z,21.10
2022-09-01T11:44:51.651Z,21.10
2022-09-01T11:47:26.857Z,21.20
2022-09-01T11:50:27.939Z,21.20
2022-09-01T11:53:05.415Z,21.30
2022-09-01T11:55:49.394Z,21.30
2022-09-01T11:58:34.614Z,21.40
2022-09-01T12:01:39.096Z,21.50
2022-09-01T12:04:31.896Z,21.60
2022-09-01T12:07:07.991Z,21.80
2022-09-01T12:09:44.142Z,22.00
2022-09-01T12:12:39.113Z,22.10
2022-09-01T12:15:25.275Z,22.30
2022-09-01T12:17:54.156Z,22.50
2022-09-01T12:20:32.464Z,22.60
2022-09-01T12:23:02.385Z,22.60
2022-09-01T12:25:33.214Z,22.70
2022-09-01T12:28:08.210Z,22.80
2022-09-01T12:30:43.681Z,22.80
2022-09-01T12:33:29.601Z,22.90
2022-09-01T12:36:30.805Z,22.90
2022-09-01T12:39:17.836Z,22.90
2022-09-01T12:42:01.149Z,22.90
2022-09-01T12:44:40.124Z,22.80
2022-09-01T12:47:36.307Z,22.80
2022-09-01T12:50:29.802Z,22.80
2022-09-01T12:53:12.889Z,22.90
2022-09-01T12:55:47.649Z,23.00
2022-09-01T12:58:28.441Z,23.10
2022-09-01T13:01:13.822Z,23.20
2022-09-01T13:04:10.124Z,23.30
2022-09-01T13:06:37.391Z,23.40
2022-09-01T13:09:04.641Z,23.50
2022-09-01T13:12:06.014Z,23.60
2022-09-01T13:14:19.105Z,23.70
2022-09-01T13:16:46.765Z,23.90
2022-09-01T13:19:19.773Z,24.00
2022-09-01T13:21:53.460Z,24.10
2022-09-01T13:24:23.352Z,24.20
2022-09-01T13:29:45.695Z,24.50
2022-09-01T13:32:21.404Z,24.70
2022-09-01T13:34:52.093Z,24.90
2022-09-01T13:37:23.845Z,25.00
2022-09-01T13:39:51.427Z,25.00
2022-09-01T13:42:19.244Z,25.00
2022-09-01T13:44:49.589Z,24.80
2022-09-01T13:47:32.442Z,24.60
2022-09-01T13:50:19.942Z,24.50
2022-09-01T13:52:57.081Z,24.50
2022-09-01T13:55:31.449Z,24.40
2022-09-01T13:57:59.304Z,24.30
2022-09-01T14:00:33.263Z,24.20
2022-09-01T14:03:08.697Z,24.20
2022-09-01T14:05:42.929Z,24.10
2022-09-01T14:08:12.818Z,24.10
2022-09-01T14:10:45.606Z,24.00
2022-09-01T14:13:13.678Z,23.90
2022-09-01T14:15:41.368Z,23.80
2022-09-01T14:18:08.881Z,23.70
2022-09-01T14:20:41.996Z,23.70
2022-09-01T14:23:10.972Z,23.50
2022-09-01T14:25:47.841Z,23.40
2022-09-01T14:28:20.186Z,23.30
2022-09-01T14:33:24.390Z,23.20
2022-09-01T14:35:51.589Z,23.20
2022-09-01T14:38:19.497Z,23.10
2022-09-01T14:40:49.299Z,23.00
2022-09-01T14:43:16.454Z,23.00
2022-09-01T14:45:47.116Z,23.00
2022-09-01T14:48:17.334Z,23.00
2022-09-01T14:50:49.009Z,23.00
2022-09-01T14:53:16.263Z,23.00
2022-09-01T14:55:44.090Z,23.00
2022-09-01T14:58:11.437Z,23.00
2022-09-01T15:00:39.277Z,23.10
2022-09-01T15:03:06.424Z,23.00
2022-09-01T15:05:39.442Z,22.90
2022-09-01T15:08:12.960Z,22.90
2022-09-01T15:10:43.303Z,22.90
2022-09-01T15:13:10.630Z,22.90
2022-09-01T15:15:38.687Z,22.90
2022-09-01T15:18:06.365Z,22.90
2022-09-01T15:20:45.399Z,22.90
2022-09-01T15:23:25.645Z,22.90
2022-09-01T15:25:55.979Z,23.00
2022-09-01T15:28:23.360Z,23.00
2022-09-01T15:30:54.327Z,23.10
2022-09-01T15:33:21.826Z,23.20
2022-09-01T15:35:48.986Z,23.30
2022-09-01T15:38:17.711Z,23.30
2022-09-01T15:40:53.636Z,23.40
2022-09-01T15:43:27.792Z,23.40
2022-09-01T15:45:58.373Z,23.30
2022-09-01T15:48:28.586Z,23.30
2022-09-01T15:51:22.823Z,23.20
2022-09-01T15:53:58.267Z,23.20
2022-09-01T15:56:26.069Z,23.10
2022-09-01T15:59:02.079Z,23.00
2022-09-01T16:01:34.335Z,22.90
2022-09-01T16:04:02.547Z,22.90
2022-09-01T16:06:30.452Z,22.80
2022-09-01T16:08:57.891Z,22.70
2022-09-01T16:11:26.373Z,22.70
2022-09-01T16:13:55.237Z,22.60
2022-09-01T16:17:07.877Z,22.60
2022-09-01T16:19:46.892Z,22.50
2022-09-01T16:22:30.105Z,22.40
2022-09-01T16:25:09.784Z,22.30
2022-09-01T16:27:44.327Z,22.20
2022-09-01T16:30:30.053Z,22.10
2022-09-01T16:33:02.162Z,22.00
2022-09-01T16:35:58.999Z,22.00
2022-09-01T16:38:46.295Z,21.90
2022-09-01T16:41:43.188Z,21.80
2022-09-01T16:44:44.270Z,21.60
2022-09-01T16:47:42.220Z,21.60
2022-09-01T16:50:33.194Z,21.50
2022-09-01T16:53:25.597Z,21.50
2022-09-01T16:56:35.998Z,21.50
2022-09-01T16:59:31.508Z,21.40
2022-09-01T17:02:38.261Z,21.30
2022-09-01T17:05:34.355Z,21.30
2022-09-01T17:08:07.752Z,21.10
2022-09-01T17:10:44.917Z,21.10
2022-09-01T17:13:38.486Z,21.10
2022-09-01T17:16:22.279Z,21.00
2022-09-01T17:18:56.753Z,20.90
2022-09-01T17:21:52.861Z,20.90
2022-09-01T17:24:40.322Z,20.80
2022-09-01T17:27:24.139Z,20.70
2022-09-01T17:29:55.371Z,20.70
2022-09-01T17:33:43.415Z,20.60
2022-09-01T17:36:34.349Z,20.60
2022-09-01T17:39:18.412Z,20.50
2022-09-01T17:41:59.139Z,20.40
2022-09-01T17:45:15.320Z,20.30
2022-09-01T17:48:18.491Z,20.20
2022-09-01T17:51:05.269Z,20.20
2022-09-01T17:54:02.175Z,20.10
2022-09-01T17:57:12.936Z,20.00
2022-09-01T17:59:47.658Z,20.00
2022-09-01T18:03:19.178Z,19.90
2022-09-01T18:06:09.421Z,19.80
2022-09-01T18:08:40.316Z,19.70
2022-09-01T18:11:43.602Z,19.60
2022-09-01T18:15:04.765Z,19.50
2022-09-01T18:17:37.486Z,19.50
2022-09-01T18:20:35.849Z,19.40
2022-09-01T18:23:19.152Z,19.40
2022-09-01T18:26:08.649Z,19.30
2022-09-01T18:28:36.442Z,19.30
2022-09-01T18:31:15.494Z,19.20
2022-09-01T18:34:14.992Z,19.10
2022-09-01T18:37:12.096Z,19.10
2022-09-01T18:40:02.439Z,19.00
2022-09-01T18:42:47.315Z,18.90
2022-09-01T18:45:26.430Z,18.80
2022-09-01T18:48:37.880Z,18.80
2022-09-01T18:51:30.409Z,18.70
2022-09-01T18:54:23.316Z,18.60
2022-09-01T18:57:04.108Z,18.50
2022-09-01T19:00:01.886Z,18.40
2022-09-01T19:03:11.609Z,18.40
2022-09-01T19:05:57.177Z,18.30
2022-09-01T19:08:33.379Z,18.20
2022-09-01T19:11:17.117Z,18.10
2022-09-01T19:14:08.708Z,18.10
2022-09-01T19:17:52.658Z,18.00
2022-09-01T19:20:28.143Z,17.90
2022-09-01T19:22:58.454Z,17.80
2022-09-01T19:25:36.968Z,17.70
2022-09-01T19:28:11.680Z,17.70
2022-09-01T19:31:03.840Z,17.70
2022-09-01T19:33:39.784Z,17.60
2022-09-01T19:36:12.108Z,17.50
2022-09-01T19:38:39.282Z,17.50
2022-09-01T19:42:02.366Z,17.50
2022-09-01T19:44:47.482Z,17.50
2022-09-01T19:47:51.662Z,17.40
2022-09-01T19:50:39.314Z,17.40
2022-09-01T19:53:23.406Z,17.30
2022-09-01T19:56:01.331Z,17.30
2022-09-01T19:58:43.232Z,17.20
2022-09-01T20:01:17.072Z,17.20
2022-09-01T20:03:53.659Z,17.10
2022-09-01T20:06:42.639Z,17.10
2022-09-01T20:09:31.369Z,17.10
2022-09-01T20:12:31.416Z,17.10
2022-09-01T20:15:12.818Z,17.00
2022-09-01T20:17:58.275Z,17.00
2022-09-01T20:20:34.549Z,16.90
2022-09-01T20:23:07.863Z,16.90
2022-09-01T20:25:49.888Z,16.80
2022-09-01T20:28:55.141Z,16.80
2022-09-01T20:31:41.869Z,16.80
2022-09-01T20:34:55.328Z,16.80
2022-09-01T20:37:42.453Z,16.70
2022-09-01T20:40:27.294Z,16.70
2022-09-01T20:43:22.299Z,16.60
2022-09-01T20:45:49.657Z,16.60
2022-09-01T20:48:23.877Z,16.60
2022-09-01T20:51:07.953Z,16.50
2022-09-01T20:54:23.545Z,16.50
2022-09-01T20:57:10.395Z,16.50
2022-09-01T21:00:01.941Z,16.50
2022-09-01T21:02:40.867Z,16.40
2022-09-01T21:05:18.733Z,16.40
2022-09-01T21:08:14.683Z,16.40
2022-09-01T21:11:15.708Z,16.40
2022-09-01T21:14:07.981Z,16.30
2022-09-01T21:17:00.037Z,16.30
2022-09-01T21:19:59.163Z,16.20
2022-09-01T21:22:29.351Z,16.20
2022-09-01T21:24:56.548Z,16.10
2022-09-01T21:27:29.267Z,16.10
2022-09-01T21:30:09.753Z,16.00
2022-09-01T21:32:37.890Z,16.00
2022-09-01T21:35:08.309Z,16.10
2022-09-01T21:37:35.884Z,15.90
2022-09-01T21:40:05.100Z,15.80
2022-09-01T21:42:49.212Z,15.80
2022-09-01T21:45:18.944Z,15.80
2022-09-01T21:47:48.756Z,15.70
2022-09-01T21:50:19.456Z,15.70
2022-09-01T21:52:46.859Z,15.70
2022-09-01T21:55:18.380Z,15.60
2022-09-01T21:57:47.884Z,15.60
2022-09-01T22:00:25.929Z,15.50
2022-09-01T22:02:54.043Z,15.50
2022-09-01T22:05:21.236Z,15.40
2022-09-01T22:07:48.522Z,15.40
2022-09-01T22:10:21.188Z,15.40
2022-09-01T22:12:50.757Z,15.40
2022-09-01T22:15:22.757Z,15.40
2022-09-01T22:17:51.188Z,15.40
2022-09-01T22:20:22.638Z,15.30
2022-09-01T22:22:50.892Z,15.30
2022-09-01T22:25:23.871Z,15.30
2022-09-01T22:27:51.491Z,15.20
2022-09-01T22:30:19.313Z,15.20
2022-09-01T22:32:47.997Z,15.20
2022-09-01T22:35:18.311Z,15.20
2022-09-01T22:37:46.636Z,15.10
2022-09-01T22:40:15.745Z,15.10
2022-09-01T22:42:44.025Z,15.10
2022-09-01T22:45:13.996Z,15.00
2022-09-01T22:47:41.097Z,15.00
2022-09-01T22:50:10.152Z,14.90
2022-09-01T22:52:38.420Z,14.90
2022-09-01T22:55:07.244Z,14.90
2022-09-01T22:57:35.168Z,14.80
2022-09-01T23:00:08.259Z,14.80
2022-09-01T23:02:36.185Z,14.70
2022-09-01T23:05:06.032Z,14.70
2022-09-01T23:07:37.779Z,14.60
2022-09-01T23:10:09.040Z,14.60
2022-09-01T23:12:36.088Z,14.50
2022-09-01T23:15:04.419Z,14.50
2022-09-01T23:17:31.923Z,14.50
2022-09-01T23:20:00.566Z,14.40
2022-09-01T23:22:27.893Z,14.40
2022-09-01T23:24:55.012Z,14.30
2022-09-01T23:27:22.202Z,14.20
2022-09-01T23:29:49.557Z,14.20
2022-09-01T23:32:16.629Z,14.20
2022-09-01T23:34:43.717Z,14.20
2022-09-01T23:37:10.874Z,14.20
2022-09-01T23:39:38.035Z,14.10
2022-09-01T23:42:05.620Z,14.10
2022-09-01T23:44:33.527Z,14.00
2022-09-01T23:47:00.673Z,14.00
2022-09-01T23:49:27.773Z,13.90
2022-09-01T23:51:55.405Z,13.80
2022-09-01T23:54:23.128Z,13.80
2022-09-01T23:56:50.319Z,13.80
2022-09-01T23:59:17.503Z,13.70
